Time;durP1;ratioP1;P1;durP2;ratioP2;P2;SDS_P1;SDS_P2;PMS_P1;PMS_P2;Temp;Humidity;BMP_temperature;BMP_pressure;BME280_temperature;BME280_humidity;BME280_pressure;Samples;Min_cycle;Max_cycle;Signal;HPM_P1;HPM_P2
2023/01/26 00:01:13;;;;;;;;;;;;;;;-0.70;85.86;99240.74;105309;1258;98000;-65
2023/01/26 00:03:40;;;;;;;;;;;;;;;-0.72;85.94;99233.36;105278;1264;97829;-66
2023/01/26 00:06:08;;;;;;;;;;;;;;;-0.70;85.83;99226.79;105275;1265;99207;-65
2023/01/26 00:08:38;;;;;;;;;;;;;;;-0.71;85.70;99226.93;105216;1266;98226;-65
2023/01/26 00:11:06;;;;;;;;;;;;;;;-0.67;85.66;99216.53;105107;1267;108074;-65
2023/01/26 00:13:33;;;;;;;;;;;;;;;-0.59;85.75;99211.80;105285;1256;99197;-65
2023/01/26 00:16:01;;;;;;;;;;;;;;;-0.56;85.51;99210.67;105258;1266;98112;-65
2023/01/26 00:18:29;;;;;;;;;;;;;;;-0.49;85.79;99211.38;105267;1257;97906;-65
2023/01/26 00:21:00;;;;;;;;;;;;;;;-0.41;85.66;99206.44;105206;1266;98683;-65
2023/01/26 00:23:30;;;;;;;;;;;;;;;-0.35;85.68;99206.48;105136;1256;108279;-65
2023/01/26 00:26:04;;;;;;;;;;;;;;;-0.33;85.18;99207.79;105189;1266;97912;-65
2023/01/26 00:28:31;;;;;;;;;;;;;;;-0.32;85.21;99203.45;105163;1262;99080;-65
2023/01/26 00:31:05;;;;;;;;;;;;;;;-0.26;85.56;99199.56;105225;1260;97975;-65
2023/01/26 00:33:32;;;;;;;;;;;;;;;-0.23;85.34;99196.08;105200;1264;99080;-76
2023/01/26 00:35:59;;;;;;;;;;;;;;;-0.26;85.11;99190.08;105263;1258;99255;-70
2023/01/26 00:38:26;;;;;;;;;;;;;;;-0.25;85.45;99191.22;105324;1257;97969;-69
2023/01/26 00:40:53;;;;;;;;;;;;;;;-0.26;85.27;99188.45;105369;1258;97909;-70
2023/01/26 00:43:20;;;;;;;;;;;;;;;-0.29;85.33;99186.23;105118;1267;98048;-70
2023/01/26 00:45:47;;;;;;;;;;;;;;;-0.34;85.26;99187.25;105291;1257;97911;-70
2023/01/26 00:48:14;;;;;;;;;;;;;;;-0.43;85.02;99187.27;105291;1257;98379;-69
2023/01/26 00:50:41;;;;;;;;;;;;;;;-0.49;84.92;99186.56;105319;1257;97918;-71
2023/01/26 00:53:08;;;;;;;;;;;;;;;-0.53;84.84;99184.41;105286;1257;97997;-70
2023/01/26 00:55:35;;;;;;;;;;;;;;;-0.57;84.75;99186.34;105334;1266;98776;-66
2023/01/26 00:58:04;;;;;;;;;;;;;;;-0.58;84.94;99183.30;105280;1265;99306;-65
2023/01/26 01:00:32;;;;;;;;;;;;;;;-0.56;85.44;99179.44;105302;1266;98014;-64
2023/01/26 01:02:59;;;;;;;;;;;;;;;-0.53;85.48;99175.26;105245;1266;97902;-65
2023/01/26 01:05:27;;;;;;;;;;;;;;;-0.48;85.32;99175.38;105258;1257;97892;-65
2023/01/26 01:07:53;;;;;;;;;;;;;;;-0.43;85.40;99171.86;105313;1258;99124;-64
2023/01/26 01:10:20;;;;;;;;;;;;;;;-0.35;85.37;99168.83;105202;1267;99305;-65
2023/01/26 01:12:47;;;;;;;;;;;;;;;-0.28;85.34;99164.28;105204;1266;98053;-64
2023/01/26 01:15:14;;;;;;;;;;;;;;;-0.21;85.01;99164.67;105269;1257;97977;-65
2023/01/26 01:17:41;;;;;;;;;;;;;;;-0.16;84.99;99158.64;105327;1254;98001;-64
2023/01/26 01:20:09;;;;;;;;;;;;;;;-0.17;84.90;99163.16;105383;1256;97969;-64
2023/01/26 01:22:37;;;;;;;;;;;;;;;-0.09;85.13;99167.45;105355;1267;99222;-65
2023/01/26 01:25:04;;;;;;;;;;;;;;;-0.06;84.92;99166.61;105288;1266;97969;-64
2023/01/26 01:27:30;;;;;;;;;;;;;;;-0.01;84.87;99165.88;105326;1267;98418;-65
2023/01/26 01:29:57;;;;;;;;;;;;;;;0.01;84.54;99160.86;105295;1268;97981;-64
2023/01/26 01:32:24;;;;;;;;;;;;;;;-0.01;84.29;99157.14;105292;1256;108839;-66
2023/01/26 01:34:51;;;;;;;;;;;;;;;-0.08;84.09;99153.09;105303;1257;97914;-64
2023/01/26 01:37:18;;;;;;;;;;;;;;;-0.17;84.36;99157.16;105278;1256;97896;-64
2023/01/26 01:39:45;;;;;;;;;;;;;;;-0.19;84.83;99153.95;105270;1260;97911;-64
2023/01/26 01:42:11;;;;;;;;;;;;;;;-0.17;84.82;99152.55;105312;1256;97985;-65
2023/01/26 01:44:38;;;;;;;;;;;;;;;-0.22;84.68;99144.88;105293;1264;97989;-65
2023/01/26 01:47:10;;;;;;;;;;;;;;;-0.25;84.83;99148.58;105292;1256;97899;-64
2023/01/26 01:49:39;;;;;;;;;;;;;;;-0.25;85.12;99145.23;105215;1256;111973;-64
2023/01/26 01:52:09;;;;;;;;;;;;;;;-0.23;85.22;99146.19;105290;1257;97926;-68
2023/01/26 01:54:49;;;;;;;;;;;;;;;-0.25;84.94;99145.67;105156;1257;108246;-74
2023/01/26 01:57:26;;;;;;;;;;;;;;;-0.29;85.06;99143.38;105256;1258;97883;-72
2023/01/26 01:59:56;;;;;;;;;;;;;;;-0.31;84.73;99143.78;105326;1257;97861;-71
2023/01/26 02:02:23;;;;;;;;;;;;;;;-0.42;84.53;99135.06;105319;1260;112254;-69
2023/01/26 02:04:50;;;;;;;;;;;;;;;-0.45;84.79;99136.93;105291;1257;97983;-70
2023/01/26 02:07:17;;;;;;;;;;;;;;;-0.48;84.73;99140.82;105275;1255;97978;-72
2023/01/26 02:12:31;;;;;;;;;;;;;;;-0.54;84.86;99129.52;105275;1258;98045;-73
2023/01/26 02:15:00;;;;;;;;;;;;;;;-0.53;84.96;99127.60;105345;1257;112177;-70
2023/01/26 02:17:27;;;;;;;;;;;;;;;-0.52;85.07;99122.77;105311;1257;98239;-70
2023/01/26 02:20:02;;;;;;;;;;;;;;;-0.49;85.30;99124.59;105259;1257;97896;-64
2023/01/26 02:22:36;;;;;;;;;;;;;;;-0.46;85.06;99123.98;105344;1267;97994;-73
2023/01/26 02:25:07;;;;;;;;;;;;;;;-0.48;84.80;99124.55;105328;1267;98692;-68
2023/01/26 02:27:34;;;;;;;;;;;;;;;-0.55;84.68;99119.84;105276;1264;112665;-66
2023/01/26 02:30:02;;;;;;;;;;;;;;;-0.60;84.76;99121.98;105264;1258;97889;-68
2023/01/26 02:32:29;;;;;;;;;;;;;;;-0.61;85.07;99118.14;105327;1257;107460;-63
2023/01/26 02:34:56;;;;;;;;;;;;;;;-0.52;85.22;99117.45;105236;1254;99259;-70
2023/01/26 02:37:23;;;;;;;;;;;;;;;-0.45;85.12;99113.33;105297;1257;97921;-66
2023/01/26 02:40:02;;;;;;;;;;;;;;;-0.42;84.89;99114.64;105276;1256;97909;-68
2023/01/26 02:42:40;;;;;;;;;;;;;;;-0.42;84.65;99109.96;105366;1266;98876;-67
2023/01/26 02:45:09;;;;;;;;;;;;;;;-0.47;84.45;99108.76;105301;1267;109192;-65
2023/01/26 02:47:35;;;;;;;;;;;;;;;-0.48;84.83;99105.27;105313;1264;97836;-70
2023/01/26 02:50:03;;;;;;;;;;;;;;;-0.46;84.83;99105.21;105200;1256;97954;-66
2023/01/26 02:52:30;;;;;;;;;;;;;;;-0.45;84.90;99103.84;105235;1270;98014;-65
2023/01/26 02:57:44;;;;;;;;;;;;;;;-0.52;84.64;99095.52;105102;1254;107638;-68
2023/01/26 03:00:21;;;;;;;;;;;;;;;-0.51;84.99;99092.11;105286;1256;97909;-65
2023/01/26 03:02:49;;;;;;;;;;;;;;;-0.51;84.73;99085.93;105315;1257;97917;-65
2023/01/26 03:05:16;;;;;;;;;;;;;;;-0.53;84.87;99082.54;105318;1266;112188;-65
2023/01/26 03:07:43;;;;;;;;;;;;;;;-0.59;84.80;99078.94;105271;1257;97985;-64
2023/01/26 03:10:11;;;;;;;;;;;;;;;-0.62;84.95;99074.67;105251;1258;98063;-65
2023/01/26 03:12:38;;;;;;;;;;;;;;;-0.66;85.10;99069.45;105101;1256;97908;-65
2023/01/26 03:27:25;;;;;;;;;;;;;;;-0.74;85.45;99066.55;105217;1257;111862;-71
2023/01/26 03:29:05;;;;;;;;;;;;;;;-0.77;85.71;99052.96;104713;1263;98156;-70
2023/01/26 03:31:32;;;;;;;;;;;;;;;-0.80;85.56;99050.85;105297;1257;97850;-69
2023/01/26 03:33:59;;;;;;;;;;;;;;;-0.80;85.45;99052.40;105372;1264;97910;-72
2023/01/26 03:36:26;;;;;;;;;;;;;;;-0.82;85.43;99051.60;105265;1275;97988;-70
2023/01/26 03:38:58;;;;;;;;;;;;;;;-0.78;85.65;99053.63;105014;1261;97989;-72
2023/01/26 03:58:29;;;;;;;;;;;;;;;-0.18;85.50;99041.59;105290;1256;110794;-69
2023/01/26 04:00:56;;;;;;;;;;;;;;;-0.09;85.13;99043.80;105340;1258;98382;-65
2023/01/26 04:08:56;;;;;;;;;;;;;;;-0.04;85.04;99034.92;105300;1258;97857;-64
2023/01/26 04:11:23;;;;;;;;;;;;;;;-0.09;84.00;99029.14;105261;1258;97915;-65
2023/01/26 04:22:07;;;;;;;;;;;;;;;-0.35;84.75;99012.90;105310;1254;99098;-64
2023/01/26 04:24:34;;;;;;;;;;;;;;;-0.42;84.62;99006.98;105220;1266;98010;-64
2023/01/26 04:27:01;;;;;;;;;;;;;;;-0.49;84.73;99002.07;105244;1258;99108;-64
2023/01/26 04:29:28;;;;;;;;;;;;;;;-0.55;84.77;99001.72;105257;1254;97957;-64
2023/01/26 04:31:55;;;;;;;;;;;;;;;-0.59;84.89;99003.68;105311;1257;97947;-63
2023/01/26 04:34:22;;;;;;;;;;;;;;;-0.58;85.16;99009.68;105132;1256;99203;-64
2023/01/26 04:36:49;;;;;;;;;;;;;;;-0.59;85.12;99009.92;105293;1254;97946;-69
2023/01/26 04:39:16;;;;;;;;;;;;;;;-0.62;85.04;99005.55;105172;1256;98359;-73
2023/01/26 04:41:43;;;;;;;;;;;;;;;-0.69;84.91;99006.92;105132;1267;307581;-70
2023/01/26 04:44:11;;;;;;;;;;;;;;;-0.70;85.20;99008.56;105334;1254;97991;-68
2023/01/26 04:46:37;;;;;;;;;;;;;;;-0.69;85.10;99008.34;105318;1266;97963;-72
2023/01/26 04:49:04;;;;;;;;;;;;;;;-0.67;85.34;99005.95;105317;1264;97981;-67
2023/01/26 04:51:31;;;;;;;;;;;;;;;-0.62;85.45;99007.54;105252;1267;97925;-70
2023/01/26 04:53:58;;;;;;;;;;;;;;;-0.56;85.38;99001.06;105206;1257;98675;-69
2023/01/26 04:56:28;;;;;;;;;;;;;;;-0.51;85.29;99000.69;105255;1256;99223;-69
2023/01/26 04:58:57;;;;;;;;;;;;;;;-0.48;85.17;99005.44;105342;1257;97892;-70
2023/01/26 05:01:24;;;;;;;;;;;;;;;-0.49;85.12;99011.89;105334;1258;98275;-72
2023/01/26 05:03:51;;;;;;;;;;;;;;;-0.52;85.07;99013.42;105292;1266;97937;-71
2023/01/26 05:06:19;;;;;;;;;;;;;;;-0.50;85.65;99007.27;105215;1267;97990;-69
2023/01/26 05:08:46;;;;;;;;;;;;;;;-0.44;85.62;98999.08;105360;1257;97947;-70
2023/01/26 05:11:13;;;;;;;;;;;;;;;-0.44;85.42;99001.70;105291;1257;97924;-73
2023/01/26 05:13:40;;;;;;;;;;;;;;;-0.49;85.42;98996.16;105237;1264;97975;-71
2023/01/26 05:16:07;;;;;;;;;;;;;;;-0.58;86.00;98995.09;105133;1254;98001;-69
2023/01/26 05:18:34;;;;;;;;;;;;;;;-0.58;86.30;98994.63;105079;1259;98507;-66
2023/01/26 05:21:01;;;;;;;;;;;;;;;-0.56;86.31;98992.33;105235;1258;97915;-66
2023/01/26 05:23:28;;;;;;;;;;;;;;;-0.58;86.41;98989.59;105090;1257;98059;-65
2023/01/26 05:25:55;;;;;;;;;;;;;;;-0.65;86.54;98992.55;105284;1264;99196;-65
2023/01/26 05:28:22;;;;;;;;;;;;;;;-0.68;86.73;98990.70;105230;1266;97912;-65
2023/01/26 05:30:49;;;;;;;;;;;;;;;-0.68;86.89;98991.23;105328;1258;98814;-65
2023/01/26 05:33:20;;;;;;;;;;;;;;;-0.70;86.97;98989.30;105346;1254;97892;-65
2023/01/26 05:35:48;;;;;;;;;;;;;;;-0.71;86.85;98990.23;105063;1261;99190;-65
2023/01/26 05:38:15;;;;;;;;;;;;;;;-0.73;86.92;98990.02;105312;1257;97970;-65
2023/01/26 05:40:43;;;;;;;;;;;;;;;-0.78;87.05;98990.77;105277;1266;98001;-65
2023/01/26 05:43:11;;;;;;;;;;;;;;;-0.78;87.20;98989.80;105310;1257;97928;-65
2023/01/26 05:45:39;;;;;;;;;;;;;;;-0.72;87.26;98991.08;105282;1257;111899;-65
2023/01/26 05:48:06;;;;;;;;;;;;;;;-0.67;87.02;98983.71;105183;1257;98686;-65
2023/01/26 05:50:33;;;;;;;;;;;;;;;-0.60;86.99;98986.31;105280;1254;107684;-65
2023/01/26 05:53:01;;;;;;;;;;;;;;;-0.55;86.74;98990.15;105181;1273;99220;-65
2023/01/26 05:55:29;;;;;;;;;;;;;;;-0.51;86.82;98989.96;105270;1254;99112;-65
2023/01/26 05:57:56;;;;;;;;;;;;;;;-0.50;86.73;98987.41;105124;1270;97892;-65
2023/01/26 06:00:23;;;;;;;;;;;;;;;-0.44;86.74;98987.38;105206;1256;98004;-65
2023/01/26 06:02:50;;;;;;;;;;;;;;;-0.40;86.62;98986.40;105234;1267;97921;-73
2023/01/26 06:05:17;;;;;;;;;;;;;;;-0.43;86.14;98986.77;105288;1257;98797;-68
2023/01/26 06:07:44;;;;;;;;;;;;;;;-0.50;86.04;98986.92;105277;1268;97991;-71
2023/01/26 06:10:10;;;;;;;;;;;;;;;-0.57;86.53;98987.99;105308;1254;97906;-69
2023/01/26 06:12:38;;;;;;;;;;;;;;;-0.63;86.58;98983.70;105287;1257;97895;-71
2023/01/26 06:15:06;;;;;;;;;;;;;;;-0.67;86.70;98990.51;105343;1254;97954;-67
2023/01/26 06:17:33;;;;;;;;;;;;;;;-0.67;86.89;98991.05;105336;1254;98037;-69
2023/01/26 06:20:00;;;;;;;;;;;;;;;-0.70;86.94;98990.55;105349;1256;97897;-70
2023/01/26 06:22:28;;;;;;;;;;;;;;;-0.77;87.09;98985.13;105329;1257;98024;-68
2023/01/26 06:24:55;;;;;;;;;;;;;;;-0.82;87.18;98982.45;105283;1257;97917;-69
2023/01/26 06:27:22;;;;;;;;;;;;;;;-0.81;87.50;98984.06;105343;1268;98807;-71
2023/01/26 06:29:49;;;;;;;;;;;;;;;-0.78;87.54;98988.19;105388;1264;97901;-70
2023/01/26 06:32:16;;;;;;;;;;;;;;;-0.73;87.31;98988.91;105279;1258;112881;-70
2023/01/26 06:34:43;;;;;;;;;;;;;;;-0.69;87.30;98984.41;105240;1257;97998;-71
2023/01/26 06:37:10;;;;;;;;;;;;;;;-0.68;87.17;98986.22;105190;1254;97947;-69
2023/01/26 06:39:37;;;;;;;;;;;;;;;-0.64;87.12;98988.48;105222;1256;98798;-69
2023/01/26 06:42:04;;;;;;;;;;;;;;;-0.60;87.09;98986.34;105196;1267;98574;-67
2023/01/26 06:44:31;;;;;;;;;;;;;;;-0.60;86.89;98989.86;105328;1257;97963;-70
2023/01/26 06:46:58;;;;;;;;;;;;;;;-0.64;86.91;98985.50;105330;1256;97940;-65
2023/01/26 06:49:25;;;;;;;;;;;;;;;-0.69;87.01;98990.08;105251;1257;98808;-66
2023/01/26 06:51:52;;;;;;;;;;;;;;;-0.71;87.27;98988.33;105307;1256;97879;-66
2023/01/26 06:54:19;;;;;;;;;;;;;;;-0.74;87.54;98986.19;105354;1258;97886;-65
2023/01/26 06:56:46;;;;;;;;;;;;;;;-0.75;87.68;98984.38;105282;1257;97935;-65
2023/01/26 06:59:13;;;;;;;;;;;;;;;-0.79;87.93;98982.63;105266;1256;97943;-65
2023/01/26 07:01:42;;;;;;;;;;;;;;;-0.78;88.03;98976.17;105330;1254;99294;-65
2023/01/26 07:04:09;;;;;;;;;;;;;;;-0.74;88.05;98972.02;105204;1256;97892;-67
2023/01/26 07:06:37;;;;;;;;;;;;;;;-0.71;88.00;98971.61;105294;1256;97983;-65
2023/01/26 07:09:03;;;;;;;;;;;;;;;-0.73;87.72;98965.75;105292;1257;97931;-65
2023/01/26 07:11:31;;;;;;;;;;;;;;;-0.74;87.73;98967.71;105261;1275;97998;-64
2023/01/26 07:13:58;;;;;;;;;;;;;;;-0.77;87.79;98963.17;105176;1256;99206;-64
2023/01/26 07:16:26;;;;;;;;;;;;;;;-0.81;87.94;98957.39;105310;1256;98604;-65
2023/01/26 07:18:56;;;;;;;;;;;;;;;-0.80;87.96;98958.59;105181;1257;97926;-64
2023/01/26 07:21:23;;;;;;;;;;;;;;;-0.74;87.92;98956.73;105226;1256;98820;-66
2023/01/26 07:23:51;;;;;;;;;;;;;;;-0.68;87.69;98953.66;105211;1257;97927;-71
2023/01/26 07:26:18;;;;;;;;;;;;;;;-0.63;87.67;98949.09;105243;1257;97989;-68
2023/01/26 07:28:45;;;;;;;;;;;;;;;-0.58;87.65;98948.17;105326;1264;99036;-65
2023/01/26 07:31:12;;;;;;;;;;;;;;;-0.53;87.49;98949.86;105057;1259;97947;-66
2023/01/26 07:33:40;;;;;;;;;;;;;;;-0.46;87.55;98946.41;105273;1258;97936;-65
2023/01/26 07:36:07;;;;;;;;;;;;;;;-0.43;87.08;98945.02;105270;1257;98540;-65
2023/01/26 07:38:34;;;;;;;;;;;;;;;-0.47;86.85;98947.19;105175;1257;99075;-65
2023/01/26 07:41:05;;;;;;;;;;;;;;;-0.48;86.94;98949.13;105297;1254;97848;-66
2023/01/26 07:43:33;;;;;;;;;;;;;;;-0.52;86.94;98949.84;105249;1256;112166;-69
2023/01/26 07:46:00;;;;;;;;;;;;;;;-0.49;87.50;98954.47;105232;1257;98213;-70
2023/01/26 07:48:30;;;;;;;;;;;;;;;-0.44;87.45;98956.76;105252;1267;97934;-70
2023/01/26 07:50:58;;;;;;;;;;;;;;;-0.45;86.95;98955.90;105304;1257;97912;-70
2023/01/26 07:53:28;;;;;;;;;;;;;;;-0.50;86.95;98956.39;105347;1253;99271;-69
2023/01/26 07:56:04;;;;;;;;;;;;;;;-0.51;87.13;98955.33;105348;1257;112595;-69
2023/01/26 07:58:31;;;;;;;;;;;;;;;-0.50;87.31;98953.75;105327;1258;99229;-69
2023/01/26 08:01:06;;;;;;;;;;;;;;;-0.49;87.36;98953.19;105328;1258;107651;-69
2023/01/26 08:03:33;;;;;;;;;;;;;;;-0.45;87.37;98953.96;105268;1257;99288;-67
2023/01/26 08:06:01;;;;;;;;;;;;;;;-0.48;87.26;98952.52;105317;1254;99242;-68
2023/01/26 08:08:28;;;;;;;;;;;;;;;-0.46;87.28;98954.70;105281;1257;113507;-70
2023/01/26 08:10:59;;;;;;;;;;;;;;;-0.46;87.36;98951.27;105298;1257;99300;-68
2023/01/26 08:13:27;;;;;;;;;;;;;;;-0.50;87.13;98950.36;105227;1257;107930;-69
2023/01/26 08:16:03;;;;;;;;;;;;;;;-0.45;87.61;98953.88;105176;1257;99923;-68
2023/01/26 08:18:30;;;;;;;;;;;;;;;-0.40;87.38;98948.93;105278;1257;99602;-65
2023/01/26 08:20:59;;;;;;;;;;;;;;;-0.35;87.10;98951.98;105289;1257;99335;-65
2023/01/26 08:23:26;;;;;;;;;;;;;;;-0.25;87.37;98949.20;105307;1257;99313;-65
2023/01/26 08:25:53;;;;;;;;;;;;;;;-0.17;86.83;98950.55;105155;1267;99372;-65
2023/01/26 08:28:20;;;;;;;;;;;;;;;-0.16;86.42;98950.63;105244;1256;99280;-65
2023/01/26 08:30:47;;;;;;;;;;;;;;;-0.08;87.09;98946.34;105256;1256;99450;-64
2023/01/26 08:33:14;;;;;;;;;;;;;;;0.02;86.59;98947.94;105300;1257;100620;-65
2023/01/26 08:35:41;;;;;;;;;;;;;;;0.01;86.08;98946.41;105300;1257;100554;-65
2023/01/26 08:38:09;;;;;;;;;;;;;;;-0.03;85.70;98947.33;105116;1256;99329;-64
2023/01/26 08:40:36;;;;;;;;;;;;;;;-0.07;85.49;98943.34;105225;1257;99322;-64
2023/01/26 08:43:03;;;;;;;;;;;;;;;-0.11;85.68;98941.30;105133;1258;99309;-68
2023/01/26 08:45:30;;;;;;;;;;;;;;;-0.12;86.00;98939.07;105121;1254;99329;-66
2023/01/26 08:47:58;;;;;;;;;;;;;;;-0.09;86.28;98939.47;105179;1257;99271;-75
2023/01/26 08:50:25;;;;;;;;;;;;;;;-0.05;86.22;98941.65;105358;1272;99288;-68
2023/01/26 08:52:54;;;;;;;;;;;;;;;-0.09;85.55;98940.98;105303;1256;99203;-66
2023/01/26 08:55:21;;;;;;;;;;;;;;;-0.15;85.84;98939.17;105341;1264;113967;-65
2023/01/26 08:57:51;;;;;;;;;;;;;;;-0.12;86.47;98939.36;105144;1260;99270;-66
2023/01/26 09:00:18;;;;;;;;;;;;;;;-0.05;86.43;98942.05;105271;1257;108341;-66
2023/01/26 09:02:46;;;;;;;;;;;;;;;-0.04;86.17;98941.96;105287;1256;99295;-68
2023/01/26 09:05:14;;;;;;;;;;;;;;;-0.09;86.11;98947.89;105286;1254;99250;-68
2023/01/26 09:07:41;;;;;;;;;;;;;;;-0.09;86.17;98952.08;105260;1258;113732;-67
2023/01/26 09:10:08;;;;;;;;;;;;;;;-0.09;86.02;98950.56;105296;1256;99253;-67
2023/01/26 09:12:37;;;;;;;;;;;;;;;-0.04;86.24;98950.79;105331;1257;107261;-65
2023/01/26 09:15:07;;;;;;;;;;;;;;;0.04;85.79;98954.33;105276;1256;99351;-66
2023/01/26 09:17:34;;;;;;;;;;;;;;;0.08;85.81;98955.29;105199;1257;100435;-68
2023/01/26 09:20:03;;;;;;;;;;;;;;;0.17;85.78;98952.63;105327;1256;113163;-68
2023/01/26 09:22:30;;;;;;;;;;;;;;;0.21;85.15;98952.29;105232;1257;99311;-68
2023/01/26 09:24:57;;;;;;;;;;;;;;;0.28;85.32;98944.86;105245;1258;99245;-70
2023/01/26 09:27:24;;;;;;;;;;;;;;;0.28;84.77;98941.79;105240;1254;99336;-67
2023/01/26 09:29:51;;;;;;;;;;;;;;;0.26;84.32;98945.94;105140;1253;99326;-66
2023/01/26 09:32:18;;;;;;;;;;;;;;;0.20;84.41;98946.98;105160;1254;99223;-71
2023/01/26 09:34:45;;;;;;;;;;;;;;;0.23;84.80;98939.75;105310;1256;99249;-70
2023/01/26 09:37:13;;;;;;;;;;;;;;;0.19;84.66;98942.21;105248;1257;99262;-66
2023/01/26 09:39:40;;;;;;;;;;;;;;;0.25;85.51;98942.33;105259;1254;99309;-71
2023/01/26 09:42:13;;;;;;;;;;;;;;;0.34;85.17;98935.48;105171;1258;99256;-67
2023/01/26 09:44:56;;;;;;;;;;;;;;;0.31;84.49;98931.06;105130;1258;113541;-65
2023/01/26 09:47:34;;;;;;;;;;;;;;;0.29;84.57;98926.89;105377;1257;99334;-64
2023/01/26 09:50:07;;;;;;;;;;;;;;;0.30;84.67;98922.69;105308;1256;107226;-65
2023/01/26 09:52:38;;;;;;;;;;;;;;;0.27;84.58;98917.84;105323;1254;100521;-65
2023/01/26 09:55:10;;;;;;;;;;;;;;;0.22;84.11;98916.50;105295;1256;99210;-65
2023/01/26 09:57:46;;;;;;;;;;;;;;;0.23;84.66;98915.73;105235;1257;111490;-64
2023/01/26 10:00:17;;;;;;;;;;;;;;;0.33;84.69;98914.23;105315;1256;100670;-64
2023/01/26 10:02:56;;;;;;;;;;;;;;;0.40;84.49;98913.66;105263;1257;108101;-64
2023/01/26 10:05:41;;;;;;;;;;;;;;;0.45;83.78;98909.73;105125;1274;99348;-67
2023/01/26 10:08:10;;;;;;;;;;;;;;;0.46;83.78;98901.38;105108;1256;100553;-74
2023/01/26 10:10:39;;;;;;;;;;;;;;;0.55;84.41;98899.16;105337;1256;113602;-70
2023/01/26 10:13:11;;;;;;;;;;;;;;;0.69;84.32;98898.33;105290;1264;99341;-70
2023/01/26 10:15:42;;;;;;;;;;;;;;;0.81;84.07;98902.32;105272;1254;108623;-67
2023/01/26 10:18:35;;;;;;;;;;;;;;;0.88;83.80;98897.05;105282;1257;99206;-66
2023/01/26 10:21:04;;;;;;;;;;;;;;;0.94;83.11;98893.05;104545;1266;99431;-72
2023/01/26 10:23:32;;;;;;;;;;;;;;;0.97;83.16;98894.98;104608;1265;113733;-69
2023/01/26 10:26:21;;;;;;;;;;;;;;;0.98;82.62;98898.84;104694;1263;99493;-70
2023/01/26 10:28:50;;;;;;;;;;;;;;;0.91;82.32;98897.14;104565;1265;108007;-70
2023/01/26 10:31:19;;;;;;;;;;;;;;;0.84;82.02;98894.70;104577;1262;99414;-69
2023/01/26 10:33:50;;;;;;;;;;;;;;;0.79;82.50;98891.65;104599;1261;99368;-71
2023/01/26 10:36:17;;;;;;;;;;;;;;;0.69;81.89;98890.35;104544;1265;113612;-70
2023/01/26 10:38:45;;;;;;;;;;;;;;;0.60;82.02;98891.38;104532;1265;99303;-70
2023/01/26 10:41:15;;;;;;;;;;;;;;;0.60;82.50;98895.48;104529;1261;99458;-72
2023/01/26 10:43:51;;;;;;;;;;;;;;;0.65;82.84;98891.63;104491;1262;100646;-65
2023/01/26 10:46:40;;;;;;;;;;;;;;;0.74;83.03;98889.48;104534;1265;99784;-70
2023/01/26 10:49:07;;;;;;;;;;;;;;;0.84;82.60;98888.17;104485;1265;112252;-69
2023/01/26 10:51:35;;;;;;;;;;;;;;;0.89;82.86;98882.00;104446;1265;99446;-66
2023/01/26 10:54:22;;;;;;;;;;;;;;;0.94;82.18;98880.52;104450;1265;107717;-67
2023/01/26 10:56:51;;;;;;;;;;;;;;;0.99;82.58;98878.16;104519;1265;99478;-67
2023/01/26 10:59:39;;;;;;;;;;;;;;;1.01;82.01;98876.48;105085;1254;99152;-67
2023/01/26 11:02:16;;;;;;;;;;;;;;;1.04;82.38;98877.13;104924;1258;113286;-70
2023/01/26 11:05:02;;;;;;;;;;;;;;;1.11;82.43;98877.60;105221;1256;99237;-72
2023/01/26 11:07:37;;;;;;;;;;;;;;;1.08;81.31;98876.52;105156;1257;108494;-72
2023/01/26 11:10:22;;;;;;;;;;;;;;;0.99;81.64;98870.23;105242;1266;99371;-71
2023/01/26 11:12:50;;;;;;;;;;;;;;;0.90;81.78;98867.79;105222;1256;100560;-68
2023/01/26 11:15:19;;;;;;;;;;;;;;;0.93;82.71;98862.59;105166;1260;113078;-66
2023/01/26 11:17:46;;;;;;;;;;;;;;;1.00;82.36;98857.91;104975;1258;99262;-64
2023/01/26 11:20:31;;;;;;;;;;;;;;;1.03;82.49;98853.11;105155;1258;100557;-64
2023/01/26 11:23:13;;;;;;;;;;;;;;;1.10;82.57;98856.20;105057;1269;99259;-63
2023/01/26 11:25:49;;;;;;;;;;;;;;;1.18;82.27;98860.70;105052;1254;99271;-64
2023/01/26 11:28:22;;;;;;;;;;;;;;;1.20;81.88;98858.89;105152;1257;113272;-67
2023/01/26 11:31:05;;;;;;;;;;;;;;;1.19;81.45;98858.19;105108;1256;99397;-69
2023/01/26 11:33:53;;;;;;;;;;;;;;;1.15;81.79;98855.68;105190;1260;109093;-67
2023/01/26 11:36:26;;;;;;;;;;;;;;;1.17;82.02;98852.48;105027;1259;99202;-70
2023/01/26 11:39:16;;;;;;;;;;;;;;;1.13;81.26;98849.52;105276;1267;99296;-69
2023/01/26 11:41:54;;;;;;;;;;;;;;;1.11;81.65;98846.83;105271;1267;113821;-71
2023/01/26 11:44:24;;;;;;;;;;;;;;;1.19;81.78;98845.48;105309;1257;99259;-66
2023/01/26 11:46:57;;;;;;;;;;;;;;;1.27;81.54;98844.91;105258;1256;108226;-69
2023/01/26 11:49:24;;;;;;;;;;;;;;;1.37;81.67;98842.83;105265;1264;99349;-67
2023/01/26 11:52:00;;;;;;;;;;;;;;;1.42;81.11;98830.80;105244;1256;99166;-69
2023/01/26 11:54:53;;;;;;;;;;;;;;;1.47;81.00;98827.69;105274;1266;113353;-71
2023/01/26 11:57:20;;;;;;;;;;;;;;;1.51;81.00;98825.74;105223;1264;99258;-71
2023/01/26 11:59:52;;;;;;;;;;;;;;;1.56;80.69;98820.68;105330;1257;99358;-71
2023/01/26 12:02:26;;;;;;;;;;;;;;;1.63;81.07;98815.41;105352;1256;99664;-69
2023/01/26 12:04:56;;;;;;;;;;;;;;;1.71;80.55;98811.23;105288;1254;99188;-67
2023/01/26 12:07:50;;;;;;;;;;;;;;;1.73;80.60;98808.73;105287;1254;112566;-69
2023/01/26 12:10:19;;;;;;;;;;;;;;;1.75;80.64;98805.73;105275;1256;100497;-66
2023/01/26 12:12:48;;;;;;;;;;;;;;;1.74;79.80;98799.17;106070;1256;107298;-69
2023/01/26 12:15:18;;;;;;;;;;;;;;;1.73;79.79;98789.60;105200;1257;99358;-68
2023/01/26 12:17:51;;;;;;;;;;;;;;;1.71;79.57;98791.25;105216;1257;99621;-67
2023/01/26 12:20:27;;;;;;;;;;;;;;;1.68;79.80;98793.98;105280;1256;112941;-69
2023/01/26 12:23:00;;;;;;;;;;;;;;;1.64;78.97;98793.77;105219;1257;99297;-69
2023/01/26 12:25:27;;;;;;;;;;;;;;;1.64;79.76;98788.24;105257;1254;108960;-69
2023/01/26 12:28:17;;;;;;;;;;;;;;;1.67;80.04;98785.52;105301;1253;99278;-69
2023/01/26 12:30:48;;;;;;;;;;;;;;;1.74;79.56;98784.10;105111;1257;99237;-67
2023/01/26 12:33:15;;;;;;;;;;;;;;;1.72;79.32;98785.70;105565;1257;112034;-69
2023/01/26 12:35:51;;;;;;;;;;;;;;;1.72;79.74;98781.36;105124;1256;99259;-67
2023/01/26 12:38:32;;;;;;;;;;;;;;;1.77;80.23;98775.05;105234;1252;108190;-65
2023/01/26 12:40:59;;;;;;;;;;;;;;;1.81;80.28;98779.52;105228;1256;99237;-65
2023/01/26 12:43:29;;;;;;;;;;;;;;;1.87;80.17;98777.98;105282;1256;99422;-65
2023/01/26 12:45:56;;;;;;;;;;;;;;;1.92;80.18;98773.77;105177;1256;113834;-64
2023/01/26 12:48:49;;;;;;;;;;;;;;;1.93;79.78;98768.16;105200;1264;99855;-68
2023/01/26 12:51:22;;;;;;;;;;;;;;;1.95;79.91;98767.96;105029;1257;108314;-67
2023/01/26 12:53:59;;;;;;;;;;;;;;;1.95;79.66;98769.25;105303;1255;99330;-68
2023/01/26 12:56:31;;;;;;;;;;;;;;;1.94;79.61;98764.86;105324;1257;100609;-68
2023/01/26 12:58:59;;;;;;;;;;;;;;;1.94;79.78;98762.27;105271;1257;113753;-65
2023/01/26 13:01:36;;;;;;;;;;;;;;;1.92;79.42;98754.80;105334;1257;99267;-65
2023/01/26 13:04:07;;;;;;;;;;;;;;;1.92;79.92;98757.80;105276;1254;108582;-66
2023/01/26 13:06:38;;;;;;;;;;;;;;;1.89;79.58;98756.60;105298;1257;99357;-69
2023/01/26 13:09:22;;;;;;;;;;;;;;;1.87;79.71;98761.22;105603;1256;100553;-66
2023/01/26 13:11:58;;;;;;;;;;;;;;;1.87;80.01;98764.48;105184;1256;113643;-69
2023/01/26 13:14:50;;;;;;;;;;;;;;;1.81;79.06;98764.02;105276;1256;99327;-67
2023/01/26 13:17:26;;;;;;;;;;;;;;;1.67;78.85;98765.54;105001;1259;108515;-68
2023/01/26 13:20:13;;;;;;;;;;;;;;;1.58;78.86;98765.98;105239;1256;99202;-69
2023/01/26 13:22:41;;;;;;;;;;;;;;;1.55;79.45;98765.02;105176;1257;100442;-70
2023/01/26 13:25:13;;;;;;;;;;;;;;;1.53;79.19;98768.56;105051;1255;99312;-67
2023/01/26 13:27:44;;;;;;;;;;;;;;;1.50;79.38;98771.60;105189;1257;99326;-70
2023/01/26 13:30:40;;;;;;;;;;;;;;;1.49;79.47;98769.33;105257;1261;107527;-69
2023/01/26 13:33:10;;;;;;;;;;;;;;;1.47;79.31;98768.43;105022;1255;99323;-69
2023/01/26 13:35:37;;;;;;;;;;;;;;;1.53;80.04;98764.77;105259;1256;99245;-70
2023/01/26 13:38:24;;;;;;;;;;;;;;;1.57;79.56;98765.16;105275;1257;112523;-70
2023/01/26 13:40:57;;;;;;;;;;;;;;;1.61;79.79;98760.61;104901;1261;99381;-69